Scottsdale, AZ

3:17 PM MST on October 01, 2014 (GMT -0700)
Scottsdale | Change Station
CLOSE
Current Station
Airport
Location: Scottsdale,
Elevation: 1509 ft
Nearby Weather Stations

Elev 1509 ft 33.62 °N, 111.91 °W | Updated 24 minutes ago

Clear
Clear
87 °F
Feels Like 87 °F
N
0
Wind Variable Wind from North

Today
High -- | Low -- °F
--% Chance of Precip.
Yesterday
High -- | Low -- °F
Precip. -- in
6:22 AM 6:11 PM
First Quarter, 51% visible
Pressure 29.73 in
Visibility 10.0 miles
Clouds Clear
Dew Point 37 °F
Humidity 17%
Rainfall 0.00 in
Snow Depth 0 in , 0 in , 0 in
UV 5 out of 12
Pollen 6.00 out of 12
Ozone Good
PM2.5 Good
Flu Activity Not available.
METAR KSDL 012153Z 00000KT 10SM CLR 31/03 A2979 RMK AO2 SLP067 T03060028

More Conditions Fewer Conditions

Pressure 29.73 in
Visibility 10.0 miles
Clouds Clear
Dew Point 37 °F
Humidity 17%
Rainfall 0.00 in
Snow Depth 0 in , 0 in , 0 in
UV 5 out of 12
Pollen 6.00 out of 12
Ozone Good
PM2.5 Good
Flu Activity Not available.
METAR KSDL 012153Z 00000KT 10SM CLR 31/03 A2979 RMK AO2 SLP067 T03060028

More Conditions Fewer Conditions

10-Day Weather Forecast

Almanac

Astronomy

Oct. 01, 2014 Rise Set
Actual Time 6:22 AM MST 6:11 PM MST
Civil Twilight 5:57 AM MST 6:36 PM MST
Nautical Twilight 5:28 AM MST 7:05 PM MST
Astronomical Twilight 4:59 AM MST 7:34 PM MST
Moon 1:14 PM MST 11:59 PM MST
Length of Visible Light 12h 39m
Length of Day
11h 49m
Tomorrow will be 2m 3s shorter.
First Quarter, 51% of the Moon is Illuminated
Today
First Quarter
Oct 8
Full
Oct 15
Last Quarter
Oct 23
New
Oct 30
First Quarter

Today's Extremes

State Highs State Lows

Community

WunderPhotos

Upload Photos

1,758,058 photos uploaded!

WunderBlogs® & News

By Dr. Jeff Masters
Director of Meteorology, Weather Underground
By Kari Strenfel
Meteorologist, Weather Underground
By Christopher C. Burt
Weather Historian, Weather Underground
October 1, 2014
October 1, 2014
October 1, 2014

Nearby

Air Quality

  Air Quality AQ Index Pollutant
Yesterday Moderate
OZONE
Yesterday Good
PM10
Current Good
OZONE
Current Good
PM2.5
Wednesday Moderate
OZONE
Wednesday Good
PM10
Wednesday Good
CO
Thursday Moderate
OZONE
Thursday Good
PM10
Thursday Good
CO
Friday Good
OZONE
Friday Good
PM10
Friday Good
CO

Snow Depth

Station Depth Elevation
Snowslide Canyon 0 in 9730 ft
Workman Creek 0 in 6900 ft
Beaver Head 0 in 7990 ft

Earthquake Activity

City Distance Mag. Time & Date
No recent earthquake activity has been reported nearby.
Minimum magnitude displayed is 2.5.

Coastal Water Temperatures

Place Temperature
No Stations Reporting

Nearby Weather Stations